Terminal Aerodrome Forecast
Issued by NWS

Home | Current Version | Previous Version | Text Only | Print | Product List | Glossary On
Versions: 1 2 3 4 5 6 7 8 9 10 11 12 13 14 15 16 17
000
FTUS43 KGRB 271734
TAFMTW
TAF
KMTW 271734Z 2718/2818 10008KT 6SM SHRA OVC015
      TEMPO 2718/2720 3SM -SHRA BKN006
     FM272000 01004KT 6SM BR BKN015
     FM280900 28003KT 2SM BR BKN008
      TEMPO 2809/2813 1/2SM FG VV001
     FM281400 29004KT P6SM SCT040=

USA.gov is the U.S. government's official web portal to all federal, state and local government web resources and services.